sensor_id;sensor_type;location;lat;lon;timestamp;P1;durP1;ratioP1;P2;durP2;ratioP2
80187;SDS011;73735;52.134;5.436;2024-02-26T00:01:48;5.53;;;2.53;;
80187;SDS011;73735;52.134;5.436;2024-02-26T00:04:15;7.80;;;3.08;;
80187;SDS011;73735;52.134;5.436;2024-02-26T00:06:41;5.95;;;3.13;;
80187;SDS011;73735;52.134;5.436;2024-02-26T00:09:10;6.45;;;2.90;;
80187;SDS011;73735;52.134;5.436;2024-02-26T00:11:37;5.07;;;2.65;;
80187;SDS011;73735;52.134;5.436;2024-02-26T00:14:03;6.82;;;3.22;;
80187;SDS011;73735;52.134;5.436;2024-02-26T00:16:30;5.78;;;3.13;;
80187;SDS011;73735;52.134;5.436;2024-02-26T00:18:57;7.05;;;3.30;;
80187;SDS011;73735;52.134;5.436;2024-02-26T00:21:23;7.47;;;3.40;;
80187;SDS011;73735;52.134;5.436;2024-02-26T00:23:50;5.15;;;2.72;;
80187;SDS011;73735;52.134;5.436;2024-02-26T00:26:20;7.22;;;3.30;;
80187;SDS011;73735;52.134;5.436;2024-02-26T00:28:46;6.47;;;3.30;;
80187;SDS011;73735;52.134;5.436;2024-02-26T00:31:13;6.43;;;3.05;;
80187;SDS011;73735;52.134;5.436;2024-02-26T00:33:39;7.22;;;3.33;;
80187;SDS011;73735;52.134;5.436;2024-02-26T00:36:06;7.07;;;3.50;;
80187;SDS011;73735;52.134;5.436;2024-02-26T00:38:32;6.95;;;3.45;;
80187;SDS011;73735;52.134;5.436;2024-02-26T00:40:59;6.13;;;3.70;;
80187;SDS011;73735;52.134;5.436;2024-02-26T00:43:25;5.70;;;2.92;;
80187;SDS011;73735;52.134;5.436;2024-02-26T00:45:52;7.45;;;3.47;;
80187;SDS011;73735;52.134;5.436;2024-02-26T00:48:18;6.53;;;3.35;;
80187;SDS011;73735;52.134;5.436;2024-02-26T00:50:45;6.82;;;3.50;;
80187;SDS011;73735;52.134;5.436;2024-02-26T00:53:12;7.80;;;3.70;;
80187;SDS011;73735;52.134;5.436;2024-02-26T00:55:38;6.40;;;3.55;;
80187;SDS011;73735;52.134;5.436;2024-02-26T00:58:05;5.90;;;3.22;;
80187;SDS011;73735;52.134;5.436;2024-02-26T01:00:31;6.68;;;3.40;;
80187;SDS011;73735;52.134;5.436;2024-02-26T01:02:58;6.28;;;3.60;;
80187;SDS011;73735;52.134;5.436;2024-02-26T01:05:25;6.43;;;3.17;;
80187;SDS011;73735;52.134;5.436;2024-02-26T01:07:52;7.47;;;3.92;;
80187;SDS011;73735;52.134;5.436;2024-02-26T01:10:19;6.40;;;3.17;;
80187;SDS011;73735;52.134;5.436;2024-02-26T01:12:45;6.72;;;3.22;;
80187;SDS011;73735;52.134;5.436;2024-02-26T01:15:12;6.70;;;3.50;;
80187;SDS011;73735;52.134;5.436;2024-02-26T01:17:39;6.72;;;3.50;;
80187;SDS011;73735;52.134;5.436;2024-02-26T01:20:06;6.32;;;3.50;;
80187;SDS011;73735;52.134;5.436;2024-02-26T01:22:32;7.40;;;3.85;;
80187;SDS011;73735;52.134;5.436;2024-02-26T01:24:59;6.88;;;3.50;;
80187;SDS011;73735;52.134;5.436;2024-02-26T01:27:26;6.97;;;3.58;;
80187;SDS011;73735;52.134;5.436;2024-02-26T01:29:53;7.22;;;3.33;;
80187;SDS011;73735;52.134;5.436;2024-02-26T01:32:20;6.80;;;3.53;;
80187;SDS011;73735;52.134;5.436;2024-02-26T01:34:46;6.88;;;3.28;;
80187;SDS011;73735;52.134;5.436;2024-02-26T01:37:13;7.40;;;3.30;;
80187;SDS011;73735;52.134;5.436;2024-02-26T01:39:39;8.52;;;3.75;;
80187;SDS011;73735;52.134;5.436;2024-02-26T01:42:07;6.90;;;3.65;;
80187;SDS011;73735;52.134;5.436;2024-02-26T01:44:34;7.15;;;3.45;;
80187;SDS011;73735;52.134;5.436;2024-02-26T01:47:00;8.02;;;3.78;;
80187;SDS011;73735;52.134;5.436;2024-02-26T01:49:28;6.82;;;3.38;;
80187;SDS011;73735;52.134;5.436;2024-02-26T01:51:55;8.95;;;3.97;;
80187;SDS011;73735;52.134;5.436;2024-02-26T01:54:24;5.93;;;3.42;;
80187;SDS011;73735;52.134;5.436;2024-02-26T01:56:51;6.75;;;3.60;;
80187;SDS011;73735;52.134;5.436;2024-02-26T01:59:18;7.45;;;3.60;;
80187;SDS011;73735;52.134;5.436;2024-02-26T02:01:45;7.40;;;3.75;;
80187;SDS011;73735;52.134;5.436;2024-02-26T02:04:18;6.60;;;3.22;;
80187;SDS011;73735;52.134;5.436;2024-02-26T02:06:45;7.88;;;3.92;;
80187;SDS011;73735;52.134;5.436;2024-02-26T02:09:12;7.00;;;3.38;;
80187;SDS011;73735;52.134;5.436;2024-02-26T02:11:39;6.63;;;3.53;;
80187;SDS011;73735;52.134;5.436;2024-02-26T02:14:05;7.60;;;3.80;;
80187;SDS011;73735;52.134;5.436;2024-02-26T02:16:32;8.68;;;4.13;;
80187;SDS011;73735;52.134;5.436;2024-02-26T02:18:59;6.78;;;3.38;;
80187;SDS011;73735;52.134;5.436;2024-02-26T02:21:25;7.57;;;3.28;;
80187;SDS011;73735;52.134;5.436;2024-02-26T02:23:52;8.25;;;4.00;;
80187;SDS011;73735;52.134;5.436;2024-02-26T02:26:18;7.40;;;3.92;;
80187;SDS011;73735;52.134;5.436;2024-02-26T02:28:45;6.45;;;3.33;;
80187;SDS011;73735;52.134;5.436;2024-02-26T02:31:13;7.60;;;3.53;;
80187;SDS011;73735;52.134;5.436;2024-02-26T02:33:40;7.35;;;3.17;;
80187;SDS011;73735;52.134;5.436;2024-02-26T02:36:07;8.25;;;3.88;;
80187;SDS011;73735;52.134;5.436;2024-02-26T02:38:39;6.88;;;3.67;;
80187;SDS011;73735;52.134;5.436;2024-02-26T02:41:18;7.57;;;3.17;;
80187;SDS011;73735;52.134;5.436;2024-02-26T02:43:45;6.13;;;3.15;;
80187;SDS011;73735;52.134;5.436;2024-02-26T02:46:11;6.88;;;3.33;;
80187;SDS011;73735;52.134;5.436;2024-02-26T02:48:38;7.75;;;3.42;;
80187;SDS011;73735;52.134;5.436;2024-02-26T02:51:04;9.80;;;3.88;;
80187;SDS011;73735;52.134;5.436;2024-02-26T02:53:31;7.30;;;3.75;;
80187;SDS011;73735;52.134;5.436;2024-02-26T02:55:57;8.05;;;3.42;;
80187;SDS011;73735;52.134;5.436;2024-02-26T02:58:24;8.68;;;3.72;;
80187;SDS011;73735;52.134;5.436;2024-02-26T03:00:50;7.30;;;3.67;;
80187;SDS011;73735;52.134;5.436;2024-02-26T03:03:17;7.63;;;3.35;;
80187;SDS011;73735;52.134;5.436;2024-02-26T03:05:43;7.10;;;3.85;;
80187;SDS011;73735;52.134;5.436;2024-02-26T03:08:10;7.82;;;4.13;;
80187;SDS011;73735;52.134;5.436;2024-02-26T03:10:36;7.63;;;3.72;;
80187;SDS011;73735;52.134;5.436;2024-02-26T03:13:03;8.90;;;3.92;;
80187;SDS011;73735;52.134;5.436;2024-02-26T03:15:30;9.80;;;4.22;;
80187;SDS011;73735;52.134;5.436;2024-02-26T03:17:56;8.45;;;4.13;;
80187;SDS011;73735;52.134;5.436;2024-02-26T03:20:23;8.20;;;4.00;;
80187;SDS011;73735;52.134;5.436;2024-02-26T03:22:49;8.93;;;3.80;;
80187;SDS011;73735;52.134;5.436;2024-02-26T03:25:16;7.97;;;4.38;;
80187;SDS011;73735;52.134;5.436;2024-02-26T03:27:42;10.30;;;4.40;;
80187;SDS011;73735;52.134;5.436;2024-02-26T03:30:09;8.82;;;4.18;;
80187;SDS011;73735;52.134;5.436;2024-02-26T03:32:36;7.97;;;4.18;;
80187;SDS011;73735;52.134;5.436;2024-02-26T03:35:03;8.05;;;3.67;;
80187;SDS011;73735;52.134;5.436;2024-02-26T03:37:30;9.13;;;4.70;;
80187;SDS011;73735;52.134;5.436;2024-02-26T03:39:56;8.00;;;4.05;;
80187;SDS011;73735;52.134;5.436;2024-02-26T03:42:24;10.63;;;4.25;;
80187;SDS011;73735;52.134;5.436;2024-02-26T03:44:50;8.30;;;3.83;;
80187;SDS011;73735;52.134;5.436;2024-02-26T03:47:17;10.77;;;4.95;;
80187;SDS011;73735;52.134;5.436;2024-02-26T03:49:43;9.05;;;4.57;;
80187;SDS011;73735;52.134;5.436;2024-02-26T03:52:10;10.18;;;4.55;;
80187;SDS011;73735;52.134;5.436;2024-02-26T03:54:36;9.35;;;4.70;;
80187;SDS011;73735;52.134;5.436;2024-02-26T03:57:03;10.80;;;5.13;;
80187;SDS011;73735;52.134;5.436;2024-02-26T03:59:29;12.15;;;5.10;;
80187;SDS011;73735;52.134;5.436;2024-02-26T04:01:56;7.70;;;4.30;;
80187;SDS011;73735;52.134;5.436;2024-02-26T04:04:22;10.32;;;4.90;;
80187;SDS011;73735;52.134;5.436;2024-02-26T04:06:49;9.23;;;4.63;;
80187;SDS011;73735;52.134;5.436;2024-02-26T04:09:15;9.05;;;4.47;;
80187;SDS011;73735;52.134;5.436;2024-02-26T04:11:42;9.27;;;4.40;;
80187;SDS011;73735;52.134;5.436;2024-02-26T04:14:11;9.68;;;4.93;;
80187;SDS011;73735;52.134;5.436;2024-02-26T04:16:38;8.10;;;4.25;;
80187;SDS011;73735;52.134;5.436;2024-02-26T04:19:05;7.32;;;3.90;;
80187;SDS011;73735;52.134;5.436;2024-02-26T04:21:33;8.90;;;4.72;;
80187;SDS011;73735;52.134;5.436;2024-02-26T04:24:01;8.38;;;4.30;;
80187;SDS011;73735;52.134;5.436;2024-02-26T04:26:28;10.10;;;4.80;;
80187;SDS011;73735;52.134;5.436;2024-02-26T04:28:56;8.45;;;4.35;;
80187;SDS011;73735;52.134;5.436;2024-02-26T04:31:22;8.40;;;4.32;;
80187;SDS011;73735;52.134;5.436;2024-02-26T04:33:49;9.13;;;4.18;;
80187;SDS011;73735;52.134;5.436;2024-02-26T04:36:16;9.07;;;4.28;;
80187;SDS011;73735;52.134;5.436;2024-02-26T04:38:43;9.05;;;4.25;;
80187;SDS011;73735;52.134;5.436;2024-02-26T04:41:10;11.00;;;4.53;;
80187;SDS011;73735;52.134;5.436;2024-02-26T04:43:37;10.23;;;4.63;;
80187;SDS011;73735;52.134;5.436;2024-02-26T04:46:07;8.95;;;4.32;;
80187;SDS011;73735;52.134;5.436;2024-02-26T04:48:35;8.30;;;4.32;;
80187;SDS011;73735;52.134;5.436;2024-02-26T04:53:29;8.43;;;4.32;;
80187;SDS011;73735;52.134;5.436;2024-02-26T04:55:56;7.47;;;4.13;;
80187;SDS011;73735;52.134;5.436;2024-02-26T04:58:22;9.82;;;4.40;;
80187;SDS011;73735;52.134;5.436;2024-02-26T05:00:49;8.73;;;4.35;;
80187;SDS011;73735;52.134;5.436;2024-02-26T05:03:15;7.82;;;4.00;;
80187;SDS011;73735;52.134;5.436;2024-02-26T05:05:45;9.18;;;4.50;;
80187;SDS011;73735;52.134;5.436;2024-02-26T05:08:12;9.02;;;4.00;;
80187;SDS011;73735;52.134;5.436;2024-02-26T05:10:38;8.40;;;4.38;;
80187;SDS011;73735;52.134;5.436;2024-02-26T05:13:09;10.07;;;4.88;;
80187;SDS011;73735;52.134;5.436;2024-02-26T05:15:35;8.18;;;4.05;;
80187;SDS011;73735;52.134;5.436;2024-02-26T05:18:02;9.82;;;4.75;;
80187;SDS011;73735;52.134;5.436;2024-02-26T05:20:29;9.15;;;4.57;;
80187;SDS011;73735;52.134;5.436;2024-02-26T05:25:25;9.82;;;4.72;;
80187;SDS011;73735;52.134;5.436;2024-02-26T05:27:51;11.55;;;5.05;;
80187;SDS011;73735;52.134;5.436;2024-02-26T05:30:18;13.93;;;5.40;;
80187;SDS011;73735;52.134;5.436;2024-02-26T05:32:44;10.95;;;5.10;;
80187;SDS011;73735;52.134;5.436;2024-02-26T05:35:11;10.10;;;4.65;;
80187;SDS011;73735;52.134;5.436;2024-02-26T05:37:37;10.75;;;5.35;;
80187;SDS011;73735;52.134;5.436;2024-02-26T05:40:04;10.65;;;4.93;;
80187;SDS011;73735;52.134;5.436;2024-02-26T05:42:32;9.88;;;4.90;;
80187;SDS011;73735;52.134;5.436;2024-02-26T05:44:59;11.75;;;5.35;;
80187;SDS011;73735;52.134;5.436;2024-02-26T05:47:32;9.25;;;4.53;;
80187;SDS011;73735;52.134;5.436;2024-02-26T05:49:59;11.25;;;5.32;;
80187;SDS011;73735;52.134;5.436;2024-02-26T05:52:27;10.38;;;4.93;;
80187;SDS011;73735;52.134;5.436;2024-02-26T05:54:55;11.20;;;5.82;;
80187;SDS011;73735;52.134;5.436;2024-02-26T05:57:21;11.38;;;5.57;;
80187;SDS011;73735;52.134;5.436;2024-02-26T05:59:48;11.48;;;5.63;;
80187;SDS011;73735;52.134;5.436;2024-02-26T06:02:14;9.80;;;4.60;;
80187;SDS011;73735;52.134;5.436;2024-02-26T06:04:41;10.07;;;5.03;;
80187;SDS011;73735;52.134;5.436;2024-02-26T06:07:07;11.88;;;5.75;;
80187;SDS011;73735;52.134;5.436;2024-02-26T06:09:34;12.55;;;5.60;;
80187;SDS011;73735;52.134;5.436;2024-02-26T06:12:01;11.20;;;4.93;;
80187;SDS011;73735;52.134;5.436;2024-02-26T06:14:28;12.20;;;5.53;;
80187;SDS011;73735;52.134;5.436;2024-02-26T06:16:54;11.57;;;5.53;;
80187;SDS011;73735;52.134;5.436;2024-02-26T06:19:20;12.85;;;5.55;;
80187;SDS011;73735;52.134;5.436;2024-02-26T06:21:50;10.15;;;5.00;;
80187;SDS011;73735;52.134;5.436;2024-02-26T06:24:17;10.27;;;5.05;;
80187;SDS011;73735;52.134;5.436;2024-02-26T06:26:43;10.70;;;5.45;;
80187;SDS011;73735;52.134;5.436;2024-02-26T06:29:10;11.48;;;5.18;;
80187;SDS011;73735;52.134;5.436;2024-02-26T06:31:36;11.55;;;5.18;;
80187;SDS011;73735;52.134;5.436;2024-02-26T06:34:03;11.80;;;5.50;;
80187;SDS011;73735;52.134;5.436;2024-02-26T06:36:30;10.82;;;5.18;;
80187;SDS011;73735;52.134;5.436;2024-02-26T06:38:58;13.25;;;5.80;;
80187;SDS011;73735;52.134;5.436;2024-02-26T06:41:27;13.27;;;6.50;;
80187;SDS011;73735;52.134;5.436;2024-02-26T06:43:55;12.80;;;5.45;;
80187;SDS011;73735;52.134;5.436;2024-02-26T06:46:22;13.27;;;6.35;;
80187;SDS011;73735;52.134;5.436;2024-02-26T06:48:49;12.70;;;5.93;;
80187;SDS011;73735;52.134;5.436;2024-02-26T06:51:20;12.63;;;6.03;;
80187;SDS011;73735;52.134;5.436;2024-02-26T06:53:47;14.88;;;6.38;;
80187;SDS011;73735;52.134;5.436;2024-02-26T06:56:14;12.77;;;6.10;;
80187;SDS011;73735;52.134;5.436;2024-02-26T06:58:40;14.50;;;6.38;;
80187;SDS011;73735;52.134;5.436;2024-02-26T07:01:07;15.82;;;6.75;;
80187;SDS011;73735;52.134;5.436;2024-02-26T07:06:01;15.75;;;6.55;;
80187;SDS011;73735;52.134;5.436;2024-02-26T07:08:28;16.00;;;6.18;;
80187;SDS011;73735;52.134;5.436;2024-02-26T07:10:55;15.65;;;6.68;;
80187;SDS011;73735;52.134;5.436;2024-02-26T07:13:21;13.88;;;6.85;;
80187;SDS011;73735;52.134;5.436;2024-02-26T07:15:48;16.88;;;7.28;;
80187;SDS011;73735;52.134;5.436;2024-02-26T07:18:14;15.70;;;6.60;;
80187;SDS011;73735;52.134;5.436;2024-02-26T07:20:41;17.90;;;7.82;;
80187;SDS011;73735;52.134;5.436;2024-02-26T07:23:07;16.65;;;6.80;;
80187;SDS011;73735;52.134;5.436;2024-02-26T07:25:34;17.00;;;7.13;;
80187;SDS011;73735;52.134;5.436;2024-02-26T07:28:00;15.77;;;7.22;;
80187;SDS011;73735;52.134;5.436;2024-02-26T07:30:26;15.30;;;7.07;;
80187;SDS011;73735;52.134;5.436;2024-02-26T07:32:53;15.98;;;7.60;;
80187;SDS011;73735;52.134;5.436;2024-02-26T07:35:20;14.98;;;6.97;;
80187;SDS011;73735;52.134;5.436;2024-02-26T07:37:49;17.60;;;6.85;;
80187;SDS011;73735;52.134;5.436;2024-02-26T07:40:16;18.20;;;7.63;;
80187;SDS011;73735;52.134;5.436;2024-02-26T07:42:43;20.58;;;8.15;;
80187;SDS011;73735;52.134;5.436;2024-02-26T07:45:09;19.15;;;8.43;;
80187;SDS011;73735;52.134;5.436;2024-02-26T07:47:36;18.48;;;8.82;;
80187;SDS011;73735;52.134;5.436;2024-02-26T07:50:07;18.50;;;8.35;;
80187;SDS011;73735;52.134;5.436;2024-02-26T07:52:38;19.30;;;7.78;;
80187;SDS011;73735;52.134;5.436;2024-02-26T07:55:05;19.08;;;8.85;;
80187;SDS011;73735;52.134;5.436;2024-02-26T07:57:33;19.42;;;8.60;;
80187;SDS011;73735;52.134;5.436;2024-02-26T08:00:00;18.55;;;8.23;;
80187;SDS011;73735;52.134;5.436;2024-02-26T08:02:27;19.98;;;8.55;;
80187;SDS011;73735;52.134;5.436;2024-02-26T08:04:54;20.05;;;9.07;;
80187;SDS011;73735;52.134;5.436;2024-02-26T08:07:28;20.50;;;9.05;;
80187;SDS011;73735;52.134;5.436;2024-02-26T08:09:54;18.83;;;8.13;;
80187;SDS011;73735;52.134;5.436;2024-02-26T08:12:21;19.58;;;8.75;;
80187;SDS011;73735;52.134;5.436;2024-02-26T08:14:47;16.50;;;7.97;;
80187;SDS011;73735;52.134;5.436;2024-02-26T08:17:14;14.65;;;7.20;;
80187;SDS011;73735;52.134;5.436;2024-02-26T08:19:40;17.73;;;7.60;;
80187;SDS011;73735;52.134;5.436;2024-02-26T08:22:06;16.17;;;7.72;;
80187;SDS011;73735;52.134;5.436;2024-02-26T08:24:33;18.60;;;7.95;;
80187;SDS011;73735;52.134;5.436;2024-02-26T08:26:59;15.32;;;7.07;;
80187;SDS011;73735;52.134;5.436;2024-02-26T08:29:26;16.65;;;7.75;;
80187;SDS011;73735;52.134;5.436;2024-02-26T08:31:53;16.35;;;7.30;;
80187;SDS011;73735;52.134;5.436;2024-02-26T08:34:19;15.10;;;7.00;;
80187;SDS011;73735;52.134;5.436;2024-02-26T08:36:45;14.25;;;6.75;;
80187;SDS011;73735;52.134;5.436;2024-02-26T08:39:12;14.88;;;6.68;;
80187;SDS011;73735;52.134;5.436;2024-02-26T08:41:40;16.25;;;6.78;;
80187;SDS011;73735;52.134;5.436;2024-02-26T08:44:06;11.02;;;5.38;;
80187;SDS011;73735;52.134;5.436;2024-02-26T08:46:35;11.50;;;5.65;;
80187;SDS011;73735;52.134;5.436;2024-02-26T08:49:01;10.80;;;5.45;;
80187;SDS011;73735;52.134;5.436;2024-02-26T08:51:28;10.90;;;5.40;;
80187;SDS011;73735;52.134;5.436;2024-02-26T08:53:54;12.60;;;6.03;;
80187;SDS011;73735;52.134;5.436;2024-02-26T08:56:21;11.77;;;5.82;;
80187;SDS011;73735;52.134;5.436;2024-02-26T08:58:47;12.27;;;5.93;;
80187;SDS011;73735;52.134;5.436;2024-02-26T09:01:19;12.85;;;5.93;;
80187;SDS011;73735;52.134;5.436;2024-02-26T09:03:46;11.55;;;5.85;;
80187;SDS011;73735;52.134;5.436;2024-02-26T09:06:14;11.63;;;5.13;;
80187;SDS011;73735;52.134;5.436;2024-02-26T09:08:41;12.00;;;5.60;;
80187;SDS011;73735;52.134;5.436;2024-02-26T09:11:07;9.77;;;5.00;;
80187;SDS011;73735;52.134;5.436;2024-02-26T09:13:36;10.07;;;4.82;;
80187;SDS011;73735;52.134;5.436;2024-02-26T09:16:02;10.85;;;4.90;;
80187;SDS011;73735;52.134;5.436;2024-02-26T09:18:29;11.60;;;5.50;;
80187;SDS011;73735;52.134;5.436;2024-02-26T09:20:56;9.90;;;5.05;;
80187;SDS011;73735;52.134;5.436;2024-02-26T09:23:22;9.45;;;4.43;;
80187;SDS011;73735;52.134;5.436;2024-02-26T09:25:49;9.60;;;4.45;;
80187;SDS011;73735;52.134;5.436;2024-02-26T09:28:15;11.70;;;4.93;;
80187;SDS011;73735;52.134;5.436;2024-02-26T09:33:10;9.15;;;4.22;;
80187;SDS011;73735;52.134;5.436;2024-02-26T09:38:04;13.63;;;5.18;;
80187;SDS011;73735;52.134;5.436;2024-02-26T09:40:32;9.93;;;4.53;;
80187;SDS011;73735;52.134;5.436;2024-02-26T09:42:59;9.50;;;4.47;;
80187;SDS011;73735;52.134;5.436;2024-02-26T09:45:28;9.00;;;4.35;;
80187;SDS011;73735;52.134;5.436;2024-02-26T09:47:59;9.13;;;4.15;;
80187;SDS011;73735;52.134;5.436;2024-02-26T09:50:26;8.40;;;3.80;;
80187;SDS011;73735;52.134;5.436;2024-02-26T09:52:53;9.52;;;4.18;;
80187;SDS011;73735;52.134;5.436;2024-02-26T09:55:21;9.80;;;4.10;;
80187;SDS011;73735;52.134;5.436;2024-02-26T09:57:47;8.38;;;3.90;;
80187;SDS011;73735;52.134;5.436;2024-02-26T10:00:17;9.38;;;4.00;;
80187;SDS011;73735;52.134;5.436;2024-02-26T10:02:46;9.18;;;3.92;;
80187;SDS011;73735;52.134;5.436;2024-02-26T10:05:17;9.00;;;4.22;;
80187;SDS011;73735;52.134;5.436;2024-02-26T10:07:45;9.82;;;4.38;;
80187;SDS011;73735;52.134;5.436;2024-02-26T10:10:15;9.30;;;3.83;;
80187;SDS011;73735;52.134;5.436;2024-02-26T10:12:46;8.82;;;3.58;;
80187;SDS011;73735;52.134;5.436;2024-02-26T10:15:12;8.45;;;3.80;;
80187;SDS011;73735;52.134;5.436;2024-02-26T10:17:39;8.70;;;4.35;;
80187;SDS011;73735;52.134;5.436;2024-02-26T10:20:11;8.05;;;3.50;;
80187;SDS011;73735;52.134;5.436;2024-02-26T10:22:42;9.70;;;3.80;;
80187;SDS011;73735;52.134;5.436;2024-02-26T10:25:09;8.10;;;3.90;;
80187;SDS011;73735;52.134;5.436;2024-02-26T10:27:35;10.07;;;3.92;;
80187;SDS011;73735;52.134;5.436;2024-02-26T10:30:18;9.27;;;3.95;;
80187;SDS011;73735;52.134;5.436;2024-02-26T10:32:48;9.05;;;3.85;;
80187;SDS011;73735;52.134;5.436;2024-02-26T10:35:16;9.30;;;3.78;;
80187;SDS011;73735;52.134;5.436;2024-02-26T10:37:44;8.45;;;3.95;;
80187;SDS011;73735;52.134;5.436;2024-02-26T10:40:11;8.68;;;3.70;;
80187;SDS011;73735;52.134;5.436;2024-02-26T10:42:38;9.60;;;3.72;;
80187;SDS011;73735;52.134;5.436;2024-02-26T10:45:05;8.70;;;3.17;;
80187;SDS011;73735;52.134;5.436;2024-02-26T10:47:33;8.75;;;3.85;;
80187;SDS011;73735;52.134;5.436;2024-02-26T10:50:01;7.90;;;3.78;;
80187;SDS011;73735;52.134;5.436;2024-02-26T10:52:32;8.02;;;3.78;;
80187;SDS011;73735;52.134;5.436;2024-02-26T10:55:01;8.63;;;3.50;;
80187;SDS011;73735;52.134;5.436;2024-02-26T10:57:33;11.98;;;4.05;;
80187;SDS011;73735;52.134;5.436;2024-02-26T11:00:07;7.82;;;3.60;;
80187;SDS011;73735;52.134;5.436;2024-02-26T11:02:39;8.73;;;3.60;;
80187;SDS011;73735;52.134;5.436;2024-02-26T11:05:07;7.57;;;3.53;;
80187;SDS011;73735;52.134;5.436;2024-02-26T11:10:05;9.65;;;3.33;;
80187;SDS011;73735;52.134;5.436;2024-02-26T11:12:32;7.63;;;3.42;;
80187;SDS011;73735;52.134;5.436;2024-02-26T11:15:03;7.85;;;3.97;;
80187;SDS011;73735;52.134;5.436;2024-02-26T11:17:30;8.25;;;3.65;;
80187;SDS011;73735;52.134;5.436;2024-02-26T11:19:59;8.25;;;3.63;;
80187;SDS011;73735;52.134;5.436;2024-02-26T11:22:26;6.82;;;3.40;;
80187;SDS011;73735;52.134;5.436;2024-02-26T11:24:53;8.23;;;3.97;;
80187;SDS011;73735;52.134;5.436;2024-02-26T11:27:22;7.40;;;3.40;;
80187;SDS011;73735;52.134;5.436;2024-02-26T11:29:53;9.38;;;4.03;;
80187;SDS011;73735;52.134;5.436;2024-02-26T11:32:21;7.53;;;3.22;;
80187;SDS011;73735;52.134;5.436;2024-02-26T11:34:48;7.70;;;3.55;;
80187;SDS011;73735;52.134;5.436;2024-02-26T11:37:15;8.15;;;3.50;;
80187;SDS011;73735;52.134;5.436;2024-02-26T11:39:43;9.75;;;3.70;;
80187;SDS011;73735;52.134;5.436;2024-02-26T11:42:13;6.80;;;3.47;;
80187;SDS011;73735;52.134;5.436;2024-02-26T11:44:42;7.22;;;3.70;;
80187;SDS011;73735;52.134;5.436;2024-02-26T11:47:18;8.38;;;3.65;;
80187;SDS011;73735;52.134;5.436;2024-02-26T11:49:46;7.50;;;3.67;;
80187;SDS011;73735;52.134;5.436;2024-02-26T11:52:14;8.00;;;3.47;;
80187;SDS011;73735;52.134;5.436;2024-02-26T12:00:10;8.55;;;3.80;;
80187;SDS011;73735;52.134;5.436;2024-02-26T12:02:45;8.20;;;3.97;;
80187;SDS011;73735;52.134;5.436;2024-02-26T12:05:17;9.75;;;4.05;;
80187;SDS011;73735;52.134;5.436;2024-02-26T12:10:22;9.32;;;3.42;;
80187;SDS011;73735;52.134;5.436;2024-02-26T12:12:58;10.80;;;3.90;;
80187;SDS011;73735;52.134;5.436;2024-02-26T12:15:30;10.30;;;3.83;;
80187;SDS011;73735;52.134;5.436;2024-02-26T12:18:02;7.13;;;3.67;;
80187;SDS011;73735;52.134;5.436;2024-02-26T12:20:31;7.97;;;3.58;;
80187;SDS011;73735;52.134;5.436;2024-02-26T12:22:58;8.57;;;3.92;;
80187;SDS011;73735;52.134;5.436;2024-02-26T12:25:25;8.38;;;3.50;;
80187;SDS011;73735;52.134;5.436;2024-02-26T12:27:53;8.52;;;3.30;;
80187;SDS011;73735;52.134;5.436;2024-02-26T12:30:20;7.45;;;3.55;;
80187;SDS011;73735;52.134;5.436;2024-02-26T12:32:50;8.88;;;4.13;;
80187;SDS011;73735;52.134;5.436;2024-02-26T12:35:17;8.02;;;3.83;;
80187;SDS011;73735;52.134;5.436;2024-02-26T12:37:44;8.57;;;3.55;;
80187;SDS011;73735;52.134;5.436;2024-02-26T12:40:12;7.93;;;3.72;;
80187;SDS011;73735;52.134;5.436;2024-02-26T12:42:39;7.80;;;3.63;;
80187;SDS011;73735;52.134;5.436;2024-02-26T12:47:36;8.60;;;3.38;;
80187;SDS011;73735;52.134;5.436;2024-02-26T12:50:06;8.13;;;3.60;;
80187;SDS011;73735;52.134;5.436;2024-02-26T12:52:35;8.25;;;3.42;;
80187;SDS011;73735;52.134;5.436;2024-02-26T12:55:05;7.95;;;3.67;;
80187;SDS011;73735;52.134;5.436;2024-02-26T12:57:36;7.80;;;3.80;;
80187;SDS011;73735;52.134;5.436;2024-02-26T13:00:07;7.20;;;3.50;;
80187;SDS011;73735;52.134;5.436;2024-02-26T13:02:37;7.93;;;3.67;;
80187;SDS011;73735;52.134;5.436;2024-02-26T13:05:05;8.30;;;4.30;;
80187;SDS011;73735;52.134;5.436;2024-02-26T13:07:40;8.13;;;3.42;;
80187;SDS011;73735;52.134;5.436;2024-02-26T13:10:07;9.05;;;3.63;;
80187;SDS011;73735;52.134;5.436;2024-02-26T13:12:34;7.10;;;3.10;;
80187;SDS011;73735;52.134;5.436;2024-02-26T13:15:01;8.27;;;3.63;;
80187;SDS011;73735;52.134;5.436;2024-02-26T13:17:32;8.20;;;3.30;;
80187;SDS011;73735;52.134;5.436;2024-02-26T13:19:59;8.30;;;3.50;;
80187;SDS011;73735;52.134;5.436;2024-02-26T13:22:26;8.00;;;3.90;;
80187;SDS011;73735;52.134;5.436;2024-02-26T13:24:56;7.75;;;3.80;;
80187;SDS011;73735;52.134;5.436;2024-02-26T13:27:23;9.07;;;3.80;;
80187;SDS011;73735;52.134;5.436;2024-02-26T13:30:03;9.13;;;3.97;;
80187;SDS011;73735;52.134;5.436;2024-02-26T13:32:35;9.52;;;3.88;;
80187;SDS011;73735;52.134;5.436;2024-02-26T13:35:07;7.70;;;3.47;;
80187;SDS011;73735;52.134;5.436;2024-02-26T13:37:37;9.02;;;3.55;;
80187;SDS011;73735;52.134;5.436;2024-02-26T13:42:31;6.95;;;3.28;;
80187;SDS011;73735;52.134;5.436;2024-02-26T13:44:59;7.65;;;3.40;;
80187;SDS011;73735;52.134;5.436;2024-02-26T13:47:25;7.05;;;3.10;;
80187;SDS011;73735;52.134;5.436;2024-02-26T13:49:52;8.70;;;4.18;;
80187;SDS011;73735;52.134;5.436;2024-02-26T13:52:19;7.50;;;3.50;;
80187;SDS011;73735;52.134;5.436;2024-02-26T13:54:48;9.65;;;3.65;;
80187;SDS011;73735;52.134;5.436;2024-02-26T13:57:14;7.28;;;3.42;;
80187;SDS011;73735;52.134;5.436;2024-02-26T13:59:41;8.07;;;3.40;;
80187;SDS011;73735;52.134;5.436;2024-02-26T14:02:09;6.65;;;3.08;;
80187;SDS011;73735;52.134;5.436;2024-02-26T14:04:36;7.47;;;3.55;;
80187;SDS011;73735;52.134;5.436;2024-02-26T14:09:30;7.57;;;3.33;;
80187;SDS011;73735;52.134;5.436;2024-02-26T14:12:11;7.00;;;2.97;;
80187;SDS011;73735;52.134;5.436;2024-02-26T14:14:38;7.68;;;3.35;;
80187;SDS011;73735;52.134;5.436;2024-02-26T14:17:06;8.43;;;3.33;;
80187;SDS011;73735;52.134;5.436;2024-02-26T14:19:33;7.75;;;3.35;;
80187;SDS011;73735;52.134;5.436;2024-02-26T14:21:59;7.88;;;3.45;;
80187;SDS011;73735;52.134;5.436;2024-02-26T14:24:26;8.15;;;3.70;;
80187;SDS011;73735;52.134;5.436;2024-02-26T14:26:52;7.38;;;3.30;;
80187;SDS011;73735;52.134;5.436;2024-02-26T14:29:19;6.88;;;3.17;;
80187;SDS011;73735;52.134;5.436;2024-02-26T14:31:46;6.95;;;2.97;;
80187;SDS011;73735;52.134;5.436;2024-02-26T14:34:13;7.93;;;3.40;;
80187;SDS011;73735;52.134;5.436;2024-02-26T14:36:39;6.97;;;3.17;;
80187;SDS011;73735;52.134;5.436;2024-02-26T14:39:07;8.15;;;3.13;;
80187;SDS011;73735;52.134;5.436;2024-02-26T14:41:33;7.38;;;3.00;;
80187;SDS011;73735;52.134;5.436;2024-02-26T14:44:00;8.45;;;3.15;;
80187;SDS011;73735;52.134;5.436;2024-02-26T14:46:26;7.07;;;3.10;;
80187;SDS011;73735;52.134;5.436;2024-02-26T14:48:52;5.88;;;3.15;;
80187;SDS011;73735;52.134;5.436;2024-02-26T14:51:19;7.18;;;3.28;;
80187;SDS011;73735;52.134;5.436;2024-02-26T14:53:45;5.88;;;2.88;;
80187;SDS011;73735;52.134;5.436;2024-02-26T14:56:12;6.90;;;2.75;;
80187;SDS011;73735;52.134;5.436;2024-02-26T14:58:39;6.80;;;3.03;;
80187;SDS011;73735;52.134;5.436;2024-02-26T15:01:05;7.72;;;3.17;;
80187;SDS011;73735;52.134;5.436;2024-02-26T15:03:32;5.20;;;2.55;;
80187;SDS011;73735;52.134;5.436;2024-02-26T15:05:59;6.80;;;2.75;;
80187;SDS011;73735;52.134;5.436;2024-02-26T15:08:25;5.40;;;2.55;;
80187;SDS011;73735;52.134;5.436;2024-02-26T15:10:52;6.15;;;2.58;;
80187;SDS011;73735;52.134;5.436;2024-02-26T15:13:18;5.65;;;2.20;;
80187;SDS011;73735;52.134;5.436;2024-02-26T15:15:45;6.25;;;2.63;;